sensor_id;sensor_type;location;lat;lon;timestamp;pressure;altitude;pressure_sealevel;temperature;humidity
54453;BME280;40363;52.270;10.546;2023-01-24T00:01:47;79723.69;;;-147.06;100.00
54453;BME280;40363;52.270;10.546;2023-01-24T00:04:14;79725.75;;;-147.06;100.00
54453;BME280;40363;52.270;10.546;2023-01-24T00:06:41;79727.81;;;-147.06;100.00
54453;BME280;40363;52.270;10.546;2023-01-24T00:09:07;79721.66;;;-147.06;100.00
54453;BME280;40363;52.270;10.546;2023-01-24T00:11:34;79725.75;;;-147.06;100.00
54453;BME280;40363;52.270;10.546;2023-01-24T00:14:02;79723.69;;;-147.06;100.00
54453;BME280;40363;52.270;10.546;2023-01-24T00:16:29;79713.41;;;-147.06;100.00
54453;BME280;40363;52.270;10.546;2023-01-24T00:18:56;79719.59;;;-147.06;100.00
54453;BME280;40363;52.270;10.546;2023-01-24T00:21:23;79725.75;;;-147.06;100.00
54453;BME280;40363;52.270;10.546;2023-01-24T00:23:52;79719.59;;;-147.06;100.00
54453;BME280;40363;52.270;10.546;2023-01-24T00:26:21;79725.75;;;-147.06;100.00
54453;BME280;40363;52.270;10.546;2023-01-24T00:28:48;79729.88;;;-147.06;100.00
54453;BME280;40363;52.270;10.546;2023-01-24T00:31:16;79727.81;;;-147.06;100.00
54453;BME280;40363;52.270;10.546;2023-01-24T00:33:43;79725.75;;;-147.06;100.00
54453;BME280;40363;52.270;10.546;2023-01-24T00:36:10;79727.81;;;-147.06;100.00
54453;BME280;40363;52.270;10.546;2023-01-24T00:38:36;79727.81;;;-147.06;100.00
54453;BME280;40363;52.270;10.546;2023-01-24T00:41:04;79717.53;;;-147.06;100.00
54453;BME280;40363;52.270;10.546;2023-01-24T00:43:30;79721.66;;;-147.06;100.00
54453;BME280;40363;52.270;10.546;2023-01-24T00:45:57;79717.53;;;-147.06;100.00
54453;BME280;40363;52.270;10.546;2023-01-24T00:48:25;79723.69;;;-147.06;100.00
54453;BME280;40363;52.270;10.546;2023-01-24T00:50:52;79719.59;;;-147.06;100.00
54453;BME280;40363;52.270;10.546;2023-01-24T00:53:19;79717.53;;;-147.06;100.00
54453;BME280;40363;52.270;10.546;2023-01-24T00:55:46;79719.59;;;-147.06;100.00
54453;BME280;40363;52.270;10.546;2023-01-24T00:58:14;79707.25;;;-147.06;100.00
54453;BME280;40363;52.270;10.546;2023-01-24T01:00:41;79713.41;;;-147.06;100.00
54453;BME280;40363;52.270;10.546;2023-01-24T01:03:12;79734.00;;;-147.06;100.00
54453;BME280;40363;52.270;10.546;2023-01-24T01:05:40;79729.88;;;-147.06;100.00
54453;BME280;40363;52.270;10.546;2023-01-24T01:08:07;79731.94;;;-147.06;100.00
54453;BME280;40363;52.270;10.546;2023-01-24T01:10:34;79738.09;;;-147.06;100.00
54453;BME280;40363;52.270;10.546;2023-01-24T01:13:01;79734.00;;;-147.06;100.00
54453;BME280;40363;52.270;10.546;2023-01-24T01:15:28;79721.66;;;-147.06;100.00
54453;BME280;40363;52.270;10.546;2023-01-24T01:17:56;79725.75;;;-147.06;100.00
54453;BME280;40363;52.270;10.546;2023-01-24T01:20:23;79721.66;;;-147.06;100.00
54453;BME280;40363;52.270;10.546;2023-01-24T01:22:51;79725.75;;;-147.06;100.00
54453;BME280;40363;52.270;10.546;2023-01-24T01:25:17;79727.81;;;-147.06;100.00
54453;BME280;40363;52.270;10.546;2023-01-24T01:27:44;79738.09;;;-147.06;100.00
54453;BME280;40363;52.270;10.546;2023-01-24T01:30:11;79740.16;;;-147.06;100.00
54453;BME280;40363;52.270;10.546;2023-01-24T01:32:38;79738.09;;;-147.06;100.00
54453;BME280;40363;52.270;10.546;2023-01-24T01:35:05;79738.09;;;-147.06;100.00
54453;BME280;40363;52.270;10.546;2023-01-24T01:37:31;79746.31;;;-147.06;100.00
54453;BME280;40363;52.270;10.546;2023-01-24T01:39:59;79731.94;;;-147.06;100.00
54453;BME280;40363;52.270;10.546;2023-01-24T01:42:39;79725.75;;;-147.06;100.00
54453;BME280;40363;52.270;10.546;2023-01-24T01:45:31;79729.88;;;-147.06;100.00
54453;BME280;40363;52.270;10.546;2023-01-24T01:48:00;79734.00;;;-147.06;100.00
54453;BME280;40363;52.270;10.546;2023-01-24T01:50:31;79729.88;;;-147.06;100.00
54453;BME280;40363;52.270;10.546;2023-01-24T01:52:59;79734.00;;;-147.06;100.00
54453;BME280;40363;52.270;10.546;2023-01-24T01:55:30;79742.22;;;-147.06;100.00
54453;BME280;40363;52.270;10.546;2023-01-24T01:58:00;79740.16;;;-147.06;100.00
54453;BME280;40363;52.270;10.546;2023-01-24T02:00:27;79740.16;;;-147.06;100.00
54453;BME280;40363;52.270;10.546;2023-01-24T02:02:59;79729.88;;;-147.06;100.00
54453;BME280;40363;52.270;10.546;2023-01-24T02:05:41;79729.88;;;-147.06;100.00
54453;BME280;40363;52.270;10.546;2023-01-24T02:08:09;79734.00;;;-147.06;100.00
54453;BME280;40363;52.270;10.546;2023-01-24T02:10:40;79725.75;;;-147.06;100.00
54453;BME280;40363;52.270;10.546;2023-01-24T02:13:21;79734.00;;;-147.06;100.00
54453;BME280;40363;52.270;10.546;2023-01-24T02:15:49;79740.16;;;-147.06;100.00
54453;BME280;40363;52.270;10.546;2023-01-24T02:18:30;79742.22;;;-147.06;100.00
54453;BME280;40363;52.270;10.546;2023-01-24T02:20:57;79738.09;;;-147.06;100.00
54453;BME280;40363;52.270;10.546;2023-01-24T02:23:31;79729.88;;;-147.06;100.00
54453;BME280;40363;52.270;10.546;2023-01-24T02:26:07;79734.00;;;-147.06;100.00
54453;BME280;40363;52.270;10.546;2023-01-24T02:28:34;79740.16;;;-147.06;100.00
54453;BME280;40363;52.270;10.546;2023-01-24T02:31:03;79742.22;;;-147.06;100.00
54453;BME280;40363;52.270;10.546;2023-01-24T02:33:31;79738.09;;;-147.06;100.00
54453;BME280;40363;52.270;10.546;2023-01-24T02:36:15;79738.09;;;-147.06;100.00
54453;BME280;40363;52.270;10.546;2023-01-24T02:38:54;79736.03;;;-147.06;100.00
54453;BME280;40363;52.270;10.546;2023-01-24T02:41:28;79734.00;;;-147.06;100.00
54453;BME280;40363;52.270;10.546;2023-01-24T02:43:58;79740.16;;;-147.06;100.00
54453;BME280;40363;52.270;10.546;2023-01-24T02:46:28;79746.31;;;-147.06;100.00
54453;BME280;40363;52.270;10.546;2023-01-24T02:48:55;79754.56;;;-147.06;100.00
54453;BME280;40363;52.270;10.546;2023-01-24T02:51:22;79748.38;;;-147.06;100.00
54453;BME280;40363;52.270;10.546;2023-01-24T02:54:06;79736.03;;;-147.06;100.00
54453;BME280;40363;52.270;10.546;2023-01-24T02:56:35;79729.88;;;-147.06;100.00
54453;BME280;40363;52.270;10.546;2023-01-24T02:59:30;79742.22;;;-147.06;100.00
54453;BME280;40363;52.270;10.546;2023-01-24T03:01:57;79744.28;;;-147.06;100.00
54453;BME280;40363;52.270;10.546;2023-01-24T03:04:23;79740.16;;;-147.06;100.00
54453;BME280;40363;52.270;10.546;2023-01-24T03:06:50;79754.56;;;-147.06;100.00
54453;BME280;40363;52.270;10.546;2023-01-24T03:09:17;79750.44;;;-147.06;100.00
54453;BME280;40363;52.270;10.546;2023-01-24T03:12:00;79746.31;;;-147.06;100.00
54453;BME280;40363;52.270;10.546;2023-01-24T03:14:44;79746.31;;;-147.06;100.00
54453;BME280;40363;52.270;10.546;2023-01-24T03:17:28;79746.31;;;-147.06;100.00
54453;BME280;40363;52.270;10.546;2023-01-24T03:20:12;79744.28;;;-147.06;100.00
54453;BME280;40363;52.270;10.546;2023-01-24T03:22:56;79750.44;;;-147.06;100.00
54453;BME280;40363;52.270;10.546;2023-01-24T03:25:41;79746.31;;;-147.06;100.00
54453;BME280;40363;52.270;10.546;2023-01-24T03:28:26;79736.03;;;-147.06;100.00
54453;BME280;40363;52.270;10.546;2023-01-24T03:31:10;79742.22;;;-147.06;100.00
54453;BME280;40363;52.270;10.546;2023-01-24T03:33:54;79727.81;;;-147.06;100.00
54453;BME280;40363;52.270;10.546;2023-01-24T03:36:38;79731.94;;;-147.06;100.00
54453;BME280;40363;52.270;10.546;2023-01-24T03:39:05;79742.22;;;-147.06;100.00
54453;BME280;40363;52.270;10.546;2023-01-24T03:41:45;79742.22;;;-147.06;100.00
54453;BME280;40363;52.270;10.546;2023-01-24T03:44:14;79746.31;;;-147.06;100.00
54453;BME280;40363;52.270;10.546;2023-01-24T03:46:40;79742.22;;;-147.06;100.00
54453;BME280;40363;52.270;10.546;2023-01-24T03:49:07;79738.09;;;-147.06;100.00
54453;BME280;40363;52.270;10.546;2023-01-24T03:51:35;79738.09;;;-147.06;100.00
54453;BME280;40363;52.270;10.546;2023-01-24T03:54:19;79734.00;;;-147.06;100.00
54453;BME280;40363;52.270;10.546;2023-01-24T03:56:45;79734.00;;;-147.06;100.00
54453;BME280;40363;52.270;10.546;2023-01-24T03:59:14;79734.00;;;-147.06;100.00
54453;BME280;40363;52.270;10.546;2023-01-24T04:01:41;79746.31;;;-147.06;100.00
54453;BME280;40363;52.270;10.546;2023-01-24T04:04:07;79750.44;;;-147.06;100.00
54453;BME280;40363;52.270;10.546;2023-01-24T04:06:34;79750.44;;;-147.06;100.00
54453;BME280;40363;52.270;10.546;2023-01-24T04:09:01;79746.31;;;-147.06;100.00
54453;BME280;40363;52.270;10.546;2023-01-24T04:11:27;79754.56;;;-147.06;100.00
54453;BME280;40363;52.270;10.546;2023-01-24T04:13:54;79746.31;;;-147.06;100.00
54453;BME280;40363;52.270;10.546;2023-01-24T04:16:22;79729.88;;;-147.06;100.00
54453;BME280;40363;52.270;10.546;2023-01-24T04:18:49;79746.31;;;-147.06;100.00
54453;BME280;40363;52.270;10.546;2023-01-24T04:21:15;79746.31;;;-147.06;100.00
54453;BME280;40363;52.270;10.546;2023-01-24T04:23:42;79744.28;;;-147.06;100.00
54453;BME280;40363;52.270;10.546;2023-01-24T04:26:08;79738.09;;;-147.06;100.00
54453;BME280;40363;52.270;10.546;2023-01-24T04:28:35;79742.22;;;-147.06;100.00
54453;BME280;40363;52.270;10.546;2023-01-24T04:31:02;79744.28;;;-147.06;100.00
54453;BME280;40363;52.270;10.546;2023-01-24T04:33:30;79748.38;;;-147.06;100.00
54453;BME280;40363;52.270;10.546;2023-01-24T04:35:58;79750.44;;;-147.06;100.00
54453;BME280;40363;52.270;10.546;2023-01-24T04:38:25;79750.44;;;-147.06;100.00
54453;BME280;40363;52.270;10.546;2023-01-24T04:40:59;79742.22;;;-147.06;100.00
54453;BME280;40363;52.270;10.546;2023-01-24T04:43:26;79742.22;;;-147.06;100.00
54453;BME280;40363;52.270;10.546;2023-01-24T04:45:55;79742.22;;;-147.06;100.00
54453;BME280;40363;52.270;10.546;2023-01-24T04:48:22;79744.28;;;-147.06;100.00
54453;BME280;40363;52.270;10.546;2023-01-24T04:50:50;79738.09;;;-147.06;100.00
54453;BME280;40363;52.270;10.546;2023-01-24T04:53:17;79740.16;;;-147.06;100.00
54453;BME280;40363;52.270;10.546;2023-01-24T04:55:43;79736.03;;;-147.06;100.00
54453;BME280;40363;52.270;10.546;2023-01-24T04:58:10;79742.22;;;-147.06;100.00
54453;BME280;40363;52.270;10.546;2023-01-24T05:00:36;79760.72;;;-147.06;100.00
54453;BME280;40363;52.270;10.546;2023-01-24T05:03:03;79748.38;;;-147.06;100.00
54453;BME280;40363;52.270;10.546;2023-01-24T05:05:30;79752.50;;;-147.06;100.00
54453;BME280;40363;52.270;10.546;2023-01-24T05:07:58;79738.09;;;-147.06;100.00
54453;BME280;40363;52.270;10.546;2023-01-24T05:10:24;79746.31;;;-147.06;100.00
54453;BME280;40363;52.270;10.546;2023-01-24T05:12:51;79744.28;;;-147.06;100.00
54453;BME280;40363;52.270;10.546;2023-01-24T05:15:17;79744.28;;;-147.06;100.00
54453;BME280;40363;52.270;10.546;2023-01-24T05:17:47;79740.16;;;-147.06;100.00
54453;BME280;40363;52.270;10.546;2023-01-24T05:20:14;79742.22;;;-147.06;100.00
54453;BME280;40363;52.270;10.546;2023-01-24T05:22:40;79754.56;;;-147.06;100.00
54453;BME280;40363;52.270;10.546;2023-01-24T05:25:13;79746.31;;;-147.06;100.00
54453;BME280;40363;52.270;10.546;2023-01-24T05:27:40;79742.22;;;-147.06;100.00
54453;BME280;40363;52.270;10.546;2023-01-24T05:30:07;79748.38;;;-147.06;100.00
54453;BME280;40363;52.270;10.546;2023-01-24T05:32:34;79746.31;;;-147.06;100.00
54453;BME280;40363;52.270;10.546;2023-01-24T05:35:01;79742.22;;;-147.06;100.00
54453;BME280;40363;52.270;10.546;2023-01-24T05:37:27;79754.56;;;-147.06;99.77
54453;BME280;40363;52.270;10.546;2023-01-24T05:39:54;79748.38;;;-147.06;100.00
54453;BME280;40363;52.270;10.546;2023-01-24T05:42:22;79750.44;;;-147.06;99.65
54453;BME280;40363;52.270;10.546;2023-01-24T05:44:48;79752.50;;;-147.06;99.67
54453;BME280;40363;52.270;10.546;2023-01-24T05:47:15;79762.78;;;-147.06;100.00
54453;BME280;40363;52.270;10.546;2023-01-24T05:49:42;79756.63;;;-147.06;100.00
54453;BME280;40363;52.270;10.546;2023-01-24T05:52:08;79766.91;;;-147.06;97.70
54453;BME280;40363;52.270;10.546;2023-01-24T05:54:35;79768.97;;;-147.06;96.76
54453;BME280;40363;52.270;10.546;2023-01-24T05:57:01;79762.78;;;-147.06;97.38
54453;BME280;40363;52.270;10.546;2023-01-24T05:59:29;79766.91;;;-147.06;97.80
54453;BME280;40363;52.270;10.546;2023-01-24T06:01:56;79762.78;;;-147.06;97.90
54453;BME280;40363;52.270;10.546;2023-01-24T06:04:23;79758.66;;;-147.06;97.87
54453;BME280;40363;52.270;10.546;2023-01-24T06:06:49;79754.56;;;-147.06;97.50
54453;BME280;40363;52.270;10.546;2023-01-24T06:09:16;79775.13;;;-147.06;96.98
54453;BME280;40363;52.270;10.546;2023-01-24T06:11:43;79771.00;;;-147.06;97.31
54453;BME280;40363;52.270;10.546;2023-01-24T06:14:09;79775.13;;;-147.06;97.03
54453;BME280;40363;52.270;10.546;2023-01-24T06:16:37;79771.00;;;-147.06;96.82
54453;BME280;40363;52.270;10.546;2023-01-24T06:19:04;79771.00;;;-147.06;96.30
54453;BME280;40363;52.270;10.546;2023-01-24T06:21:41;79781.31;;;-147.06;96.27
54453;BME280;40363;52.270;10.546;2023-01-24T06:24:18;79777.19;;;-147.06;96.52
54453;BME280;40363;52.270;10.546;2023-01-24T06:26:46;79785.41;;;-147.06;95.65
54453;BME280;40363;52.270;10.546;2023-01-24T06:29:13;79779.25;;;-147.06;95.18
54453;BME280;40363;52.270;10.546;2023-01-24T06:31:47;79779.25;;;-147.06;94.52
54453;BME280;40363;52.270;10.546;2023-01-24T06:34:28;79785.41;;;-147.06;94.68
54453;BME280;40363;52.270;10.546;2023-01-24T06:37:06;79785.41;;;-147.06;94.50
54453;BME280;40363;52.270;10.546;2023-01-24T06:39:38;79779.25;;;-147.06;94.68
54453;BME280;40363;52.270;10.546;2023-01-24T06:42:05;79775.13;;;-147.06;93.48
54453;BME280;40363;52.270;10.546;2023-01-24T06:44:32;79783.34;;;-147.06;93.31
54453;BME280;40363;52.270;10.546;2023-01-24T06:47:01;79808.03;;;-147.06;94.32
54453;BME280;40363;52.270;10.546;2023-01-24T06:49:27;79801.88;;;-147.06;94.49
54453;BME280;40363;52.270;10.546;2023-01-24T06:51:54;79793.66;;;-147.06;93.81
54453;BME280;40363;52.270;10.546;2023-01-24T06:54:20;79797.75;;;-147.06;93.80
54453;BME280;40363;52.270;10.546;2023-01-24T06:56:47;79795.69;;;-147.06;93.52
54453;BME280;40363;52.270;10.546;2023-01-24T06:59:14;79791.59;;;-147.06;93.04
54453;BME280;40363;52.270;10.546;2023-01-24T07:01:40;79795.69;;;-147.06;92.85
54453;BME280;40363;52.270;10.546;2023-01-24T07:04:08;79799.81;;;-147.06;93.04
54453;BME280;40363;52.270;10.546;2023-01-24T07:06:35;79812.16;;;-147.06;93.11
54453;BME280;40363;52.270;10.546;2023-01-24T07:09:02;79814.22;;;-147.06;93.54
54453;BME280;40363;52.270;10.546;2023-01-24T07:11:28;79818.31;;;-147.06;92.01
54453;BME280;40363;52.270;10.546;2023-01-24T07:13:55;79832.72;;;-147.06;91.84
54453;BME280;40363;52.270;10.546;2023-01-24T07:16:22;79822.44;;;-147.06;91.13
54453;BME280;40363;52.270;10.546;2023-01-24T07:18:49;79810.09;;;-147.06;90.93
54453;BME280;40363;52.270;10.546;2023-01-24T07:21:17;79808.03;;;-147.06;91.26
54453;BME280;40363;52.270;10.546;2023-01-24T07:23:45;79787.47;;;-147.06;92.11
54453;BME280;40363;52.270;10.546;2023-01-24T07:26:13;79795.69;;;-147.06;90.39
54453;BME280;40363;52.270;10.546;2023-01-24T07:28:40;79812.16;;;-147.06;90.70
54453;BME280;40363;52.270;10.546;2023-01-24T07:31:10;79808.03;;;-147.06;91.02
54453;BME280;40363;52.270;10.546;2023-01-24T07:33:38;79820.38;;;-147.06;91.02
54453;BME280;40363;52.270;10.546;2023-01-24T07:36:11;79814.22;;;-147.06;91.50
54453;BME280;40363;52.270;10.546;2023-01-24T07:38:39;79820.38;;;-147.06;90.65
54453;BME280;40363;52.270;10.546;2023-01-24T07:41:06;79812.16;;;-147.06;90.46
54453;BME280;40363;52.270;10.546;2023-01-24T07:43:33;79810.09;;;-147.06;90.70
54453;BME280;40363;52.270;10.546;2023-01-24T07:46:00;79812.16;;;-147.06;90.74
54453;BME280;40363;52.270;10.546;2023-01-24T07:48:26;79810.09;;;-147.06;90.62
54453;BME280;40363;52.270;10.546;2023-01-24T07:50:53;79810.09;;;-147.06;90.59
54453;BME280;40363;52.270;10.546;2023-01-24T07:53:23;79818.31;;;-147.06;89.55
54453;BME280;40363;52.270;10.546;2023-01-24T07:55:51;79812.16;;;-147.06;89.40
54453;BME280;40363;52.270;10.546;2023-01-24T07:58:19;79820.38;;;-147.06;89.72
54453;BME280;40363;52.270;10.546;2023-01-24T08:00:46;79810.09;;;-147.06;90.24
54453;BME280;40363;52.270;10.546;2023-01-24T08:03:13;79810.09;;;-147.06;89.92
54453;BME280;40363;52.270;10.546;2023-01-24T08:05:39;79822.44;;;-147.06;88.98
54453;BME280;40363;52.270;10.546;2023-01-24T08:08:06;79830.66;;;-147.06;89.05
54453;BME280;40363;52.270;10.546;2023-01-24T08:10:33;79828.63;;;-147.06;89.19
54453;BME280;40363;52.270;10.546;2023-01-24T08:13:01;79818.31;;;-147.06;89.28
54453;BME280;40363;52.270;10.546;2023-01-24T08:15:28;79820.38;;;-147.06;89.31
54453;BME280;40363;52.270;10.546;2023-01-24T08:17:55;79824.50;;;-147.06;89.19
54453;BME280;40363;52.270;10.546;2023-01-24T08:20:21;79814.22;;;-147.06;89.23
54453;BME280;40363;52.270;10.546;2023-01-24T08:22:53;79812.16;;;-147.06;89.02
54453;BME280;40363;52.270;10.546;2023-01-24T08:25:20;79812.16;;;-147.06;89.62
54453;BME280;40363;52.270;10.546;2023-01-24T08:27:47;79822.44;;;-147.06;89.26
54453;BME280;40363;52.270;10.546;2023-01-24T08:30:15;79832.72;;;-147.06;89.33
54453;BME280;40363;52.270;10.546;2023-01-24T08:32:42;79820.38;;;-147.06;89.61
54453;BME280;40363;52.270;10.546;2023-01-24T08:35:08;79824.50;;;-147.06;89.78
54453;BME280;40363;52.270;10.546;2023-01-24T08:37:35;79820.38;;;-147.06;89.31
54453;BME280;40363;52.270;10.546;2023-01-24T08:40:02;79818.31;;;-147.06;89.58
54453;BME280;40363;52.270;10.546;2023-01-24T08:42:28;79830.66;;;-147.06;89.43
54453;BME280;40363;52.270;10.546;2023-01-24T08:44:55;79822.44;;;-147.06;89.39
54453;BME280;40363;52.270;10.546;2023-01-24T08:47:23;79816.28;;;-147.06;89.54
54453;BME280;40363;52.270;10.546;2023-01-24T08:49:50;79822.44;;;-147.06;89.41
54453;BME280;40363;52.270;10.546;2023-01-24T08:52:16;79812.16;;;-147.06;89.26
54453;BME280;40363;52.270;10.546;2023-01-24T08:54:43;79812.16;;;-147.06;89.18
54453;BME280;40363;52.270;10.546;2023-01-24T08:57:10;79812.16;;;-147.06;89.12
54453;BME280;40363;52.270;10.546;2023-01-24T08:59:36;79816.28;;;-147.06;88.63
54453;BME280;40363;52.270;10.546;2023-01-24T09:02:03;79820.38;;;-147.06;88.17
54453;BME280;40363;52.270;10.546;2023-01-24T09:04:32;79836.84;;;-147.06;87.87
54453;BME280;40363;52.270;10.546;2023-01-24T09:06:59;79820.38;;;-147.06;87.80
54453;BME280;40363;52.270;10.546;2023-01-24T09:09:25;79824.50;;;-147.06;87.67
54453;BME280;40363;52.270;10.546;2023-01-24T09:11:52;79822.44;;;-147.06;87.32
54453;BME280;40363;52.270;10.546;2023-01-24T09:14:18;79824.50;;;-147.06;87.83
54453;BME280;40363;52.270;10.546;2023-01-24T09:16:45;79830.66;;;-147.06;87.67
54453;BME280;40363;52.270;10.546;2023-01-24T09:19:12;79818.31;;;-147.06;87.18
54453;BME280;40363;52.270;10.546;2023-01-24T09:21:40;79812.16;;;-147.06;87.05
54453;BME280;40363;52.270;10.546;2023-01-24T09:24:08;79830.66;;;-147.06;87.08
54453;BME280;40363;52.270;10.546;2023-01-24T09:26:35;79826.56;;;-147.06;88.03
54453;BME280;40363;52.270;10.546;2023-01-24T09:29:01;79826.56;;;-147.06;87.82
54453;BME280;40363;52.270;10.546;2023-01-24T09:31:28;79828.63;;;-147.06;87.66
54453;BME280;40363;52.270;10.546;2023-01-24T09:33:54;79832.72;;;-147.06;87.38
54453;BME280;40363;52.270;10.546;2023-01-24T09:36:21;79826.56;;;-147.06;87.06
54453;BME280;40363;52.270;10.546;2023-01-24T09:38:49;79824.50;;;-147.06;87.39
54453;BME280;40363;52.270;10.546;2023-01-24T09:41:23;79824.50;;;-147.06;87.54
54453;BME280;40363;52.270;10.546;2023-01-24T09:43:58;79826.56;;;-147.06;87.16
54453;BME280;40363;52.270;10.546;2023-01-24T09:46:30;79818.31;;;-147.06;87.49
54453;BME280;40363;52.270;10.546;2023-01-24T09:49:09;79812.16;;;-147.06;87.33
54453;BME280;40363;52.270;10.546;2023-01-24T09:51:41;79820.38;;;-147.06;86.91
54453;BME280;40363;52.270;10.546;2023-01-24T09:54:16;79816.28;;;-147.06;86.55
54453;BME280;40363;52.270;10.546;2023-01-24T09:56:45;79812.16;;;-147.06;87.20
54453;BME280;40363;52.270;10.546;2023-01-24T09:59:18;79828.63;;;-147.06;86.68
54453;BME280;40363;52.270;10.546;2023-01-24T10:01:47;79816.28;;;-147.06;86.42
54453;BME280;40363;52.270;10.546;2023-01-24T10:04:16;79812.16;;;-147.06;86.70
54453;BME280;40363;52.270;10.546;2023-01-24T10:07:04;79801.88;;;-147.06;85.83
54453;BME280;40363;52.270;10.546;2023-01-24T10:09:44;79808.03;;;-147.06;85.99
54453;BME280;40363;52.270;10.546;2023-01-24T10:12:26;79799.81;;;-147.06;85.64
54453;BME280;40363;52.270;10.546;2023-01-24T10:15:07;79793.66;;;-147.06;85.82
54453;BME280;40363;52.270;10.546;2023-01-24T10:18:06;79789.53;;;-147.06;86.12
54453;BME280;40363;52.270;10.546;2023-01-24T10:20:49;79785.41;;;-147.06;85.99
54453;BME280;40363;52.270;10.546;2023-01-24T10:23:21;79791.59;;;-147.06;85.45
54453;BME280;40363;52.270;10.546;2023-01-24T10:25:55;79773.06;;;-147.06;86.04
54453;BME280;40363;52.270;10.546;2023-01-24T10:28:27;79783.34;;;-147.06;85.95
54453;BME280;40363;52.270;10.546;2023-01-24T10:31:04;79783.34;;;-147.06;86.02
54453;BME280;40363;52.270;10.546;2023-01-24T10:33:35;79783.34;;;-147.06;85.03
54453;BME280;40363;52.270;10.546;2023-01-24T10:36:08;79773.06;;;-147.06;85.21
54453;BME280;40363;52.270;10.546;2023-01-24T10:38:38;79777.19;;;-147.06;85.08
54453;BME280;40363;52.270;10.546;2023-01-24T10:41:19;79777.19;;;-147.06;85.03
54453;BME280;40363;52.270;10.546;2023-01-24T10:43:52;79756.63;;;-147.06;85.61
54453;BME280;40363;52.270;10.546;2023-01-24T10:49:18;79754.56;;;-147.06;85.24
54453;BME280;40363;52.270;10.546;2023-01-24T10:52:16;79740.16;;;-147.06;84.59
54453;BME280;40363;52.270;10.546;2023-01-24T10:54:48;79738.09;;;-147.06;84.78
54453;BME280;40363;52.270;10.546;2023-01-24T10:57:37;79729.88;;;-147.06;84.06
54453;BME280;40363;52.270;10.546;2023-01-24T11:00:16;79729.88;;;-147.06;84.31
54453;BME280;40363;52.270;10.546;2023-01-24T11:02:47;79752.50;;;-147.06;85.04
54453;BME280;40363;52.270;10.546;2023-01-24T11:05:14;79742.22;;;-147.06;85.05
54453;BME280;40363;52.270;10.546;2023-01-24T11:07:45;79746.31;;;-147.06;85.59
54453;BME280;40363;52.270;10.546;2023-01-24T11:10:19;79746.31;;;-147.06;84.90
54453;BME280;40363;52.270;10.546;2023-01-24T11:12:52;79752.50;;;-147.06;84.22
54453;BME280;40363;52.270;10.546;2023-01-24T11:15:23;79762.78;;;-147.06;84.46
54453;BME280;40363;52.270;10.546;2023-01-24T11:17:56;79742.22;;;-147.06;84.93
54453;BME280;40363;52.270;10.546;2023-01-24T11:20:31;79744.28;;;-147.06;84.89
54453;BME280;40363;52.270;10.546;2023-01-24T11:23:08;79738.09;;;-147.06;84.72
54453;BME280;40363;52.270;10.546;2023-01-24T11:25:50;79738.09;;;-147.06;84.44
54453;BME280;40363;52.270;10.546;2023-01-24T11:28:25;79738.09;;;-147.06;84.18
54453;BME280;40363;52.270;10.546;2023-01-24T11:30:52;79746.31;;;-147.06;84.50
54453;BME280;40363;52.270;10.546;2023-01-24T11:33:33;79734.00;;;-147.06;84.36
54453;BME280;40363;52.270;10.546;2023-01-24T11:36:14;79738.09;;;-147.06;84.80
54453;BME280;40363;52.270;10.546;2023-01-24T11:38:43;79734.00;;;-147.06;84.12
54453;BME280;40363;52.270;10.546;2023-01-24T11:41:13;79729.88;;;-147.06;84.12
54453;BME280;40363;52.270;10.546;2023-01-24T11:44:02;79713.41;;;-147.06;84.91
54453;BME280;40363;52.270;10.546;2023-01-24T11:46:47;79711.34;;;-147.06;84.57
54453;BME280;40363;52.270;10.546;2023-01-24T11:49:43;79719.59;;;-147.06;83.51
54453;BME280;40363;52.270;10.546;2023-01-24T11:52:38;79713.41;;;-147.06;83.84
54453;BME280;40363;52.270;10.546;2023-01-24T11:55:15;79750.44;;;-147.06;83.31
54453;BME280;40363;52.270;10.546;2023-01-24T11:57:51;79727.81;;;-147.06;84.15
54453;BME280;40363;52.270;10.546;2023-01-24T12:00:30;79715.47;;;-147.06;83.52
54453;BME280;40363;52.270;10.546;2023-01-24T12:03:21;79709.31;;;-147.06;83.47
54453;BME280;40363;52.270;10.546;2023-01-24T12:06:01;79692.84;;;-147.06;84.05
54453;BME280;40363;52.270;10.546;2023-01-24T12:08:43;79690.78;;;-147.06;83.04
54453;BME280;40363;52.270;10.546;2023-01-24T12:11:18;79692.84;;;-147.06;83.07
54453;BME280;40363;52.270;10.546;2023-01-24T12:13:55;79682.56;;;-147.06;83.40
54453;BME280;40363;52.270;10.546;2023-01-24T12:16:37;79684.63;;;-147.06;81.73
54453;BME280;40363;52.270;10.546;2023-01-24T12:22:13;79688.72;;;-147.06;81.79
54453;BME280;40363;52.270;10.546;2023-01-24T12:24:45;79705.19;;;-147.06;82.22
54453;BME280;40363;52.270;10.546;2023-01-24T12:27:15;79713.41;;;-147.06;83.01
54453;BME280;40363;52.270;10.546;2023-01-24T12:29:46;79725.75;;;-147.06;82.69
54453;BME280;40363;52.270;10.546;2023-01-24T12:32:22;79717.53;;;-147.06;83.19
54453;BME280;40363;52.270;10.546;2023-01-24T12:34:53;79696.97;;;-147.06;82.84
54453;BME280;40363;52.270;10.546;2023-01-24T12:37:26;79771.00;;;-147.06;83.80
54453;BME280;40363;52.270;10.546;2023-01-24T12:40:00;79738.09;;;-147.06;83.63
54453;BME280;40363;52.270;10.546;2023-01-24T12:42:38;79717.53;;;-147.06;83.46
54453;BME280;40363;52.270;10.546;2023-01-24T12:45:13;79717.53;;;-147.06;84.29
54453;BME280;40363;52.270;10.546;2023-01-24T12:47:46;79686.69;;;-147.06;84.72
54453;BME280;40363;52.270;10.546;2023-01-24T12:50:20;79694.91;;;-147.06;83.84